createdAt,value
2019-02-16T00:00:29.025Z,7.97
2019-02-16T00:02:56.276Z,8.33
2019-02-16T00:05:23.531Z,8.63
2019-02-16T00:07:50.756Z,9.03
2019-02-16T00:10:18.023Z,8.87
2019-02-16T00:12:45.238Z,7.93
2019-02-16T00:15:12.456Z,7.10
2019-02-16T00:17:39.719Z,8.83
2019-02-16T00:20:07.160Z,7.90
2019-02-16T00:22:34.462Z,7.13
2019-02-16T00:25:01.776Z,6.53
2019-02-16T00:27:28.996Z,7.13
2019-02-16T00:29:56.216Z,7.30
2019-02-16T00:32:23.519Z,7.17
2019-02-16T00:34:50.751Z,7.30
2019-02-16T00:37:18.029Z,7.20
2019-02-16T00:39:45.269Z,6.77
2019-02-16T00:42:12.465Z,6.70
2019-02-16T00:44:39.713Z,6.80
2019-02-16T00:47:06.930Z,7.23
2019-02-16T00:49:34.153Z,7.17
2019-02-16T00:52:01.419Z,6.50
2019-02-16T00:54:28.653Z,7.70
2019-02-16T00:56:55.918Z,7.63
2019-02-16T00:59:23.157Z,7.90
2019-02-16T01:01:50.407Z,7.87
2019-02-16T01:04:17.662Z,7.30
2019-02-16T01:06:44.940Z,7.27
2019-02-16T01:09:12.203Z,6.97
2019-02-16T01:11:39.447Z,7.17
2019-02-16T01:14:06.681Z,6.73
2019-02-16T01:16:33.942Z,7.43
2019-02-16T01:19:01.584Z,7.50
2019-02-16T01:21:28.850Z,6.97
2019-02-16T01:23:56.210Z,6.83
2019-02-16T01:26:23.423Z,7.50
2019-02-16T01:28:50.637Z,7.87
2019-02-16T01:31:17.900Z,7.60
2019-02-16T01:33:45.648Z,7.50
2019-02-16T01:36:13.094Z,7.30
2019-02-16T01:38:40.358Z,7.43
2019-02-16T01:41:07.655Z,7.80
2019-02-16T01:43:34.947Z,7.47
2019-02-16T01:46:02.274Z,7.90
2019-02-16T01:48:29.543Z,8.03
2019-02-16T01:50:56.821Z,9.20
2019-02-16T01:53:24.107Z,8.27
2019-02-16T01:55:51.443Z,8.20
2019-02-16T01:58:18.741Z,8.47
2019-02-16T02:00:46.024Z,7.40
2019-02-16T02:03:13.268Z,7.70
2019-02-16T02:05:40.558Z,7.27
2019-02-16T02:08:07.791Z,8.33
2019-02-16T02:10:35.027Z,7.33
2019-02-16T02:13:02.307Z,7.00
2019-02-16T02:15:29.560Z,7.90
2019-02-16T02:17:56.832Z,7.20
2019-02-16T02:20:24.060Z,7.57
2019-02-16T02:22:51.337Z,7.30
2019-02-16T02:25:18.751Z,7.33
2019-02-16T02:27:46.012Z,7.07
2019-02-16T02:30:13.278Z,7.43
2019-02-16T02:32:40.533Z,6.73
2019-02-16T02:35:07.804Z,7.27
2019-02-16T02:37:35.130Z,7.73
2019-02-16T02:40:02.383Z,8.40
2019-02-16T02:42:29.615Z,8.47
2019-02-16T02:44:56.964Z,8.33
2019-02-16T02:47:24.239Z,7.03
2019-02-16T02:49:51.565Z,7.50
2019-02-16T02:52:18.855Z,6.63
2019-02-16T02:54:46.123Z,6.77
2019-02-16T02:57:13.432Z,6.90
2019-02-16T02:59:40.700Z,7.37
2019-02-16T03:02:07.920Z,6.70
2019-02-16T03:04:35.201Z,7.10
2019-02-16T03:07:02.505Z,7.17
2019-02-16T03:09:29.762Z,6.90
2019-02-16T03:11:56.986Z,6.63
2019-02-16T03:14:24.278Z,7.10
2019-02-16T03:16:51.547Z,6.70
2019-02-16T03:19:18.778Z,7.20
2019-02-16T03:21:46.051Z,6.93
2019-02-16T03:24:13.394Z,7.10
2019-02-16T03:26:53.959Z,7.83
2019-02-16T03:29:28.546Z,7.43
2019-02-16T03:32:33.092Z,7.00
2019-02-16T03:35:48.083Z,6.40
2019-02-16T03:38:49.920Z,6.87
2019-02-16T03:41:17.166Z,7.03
2019-02-16T03:43:44.397Z,7.83
2019-02-16T03:46:11.666Z,6.77
2019-02-16T03:48:38.931Z,7.17
2019-02-16T03:51:06.397Z,6.70
2019-02-16T03:53:33.669Z,7.70
2019-02-16T03:56:00.910Z,7.17
2019-02-16T03:58:28.144Z,7.57
2019-02-16T04:00:55.452Z,7.20
2019-02-16T04:03:22.697Z,6.30
2019-02-16T04:05:49.942Z,6.73
2019-02-16T04:08:17.227Z,7.27
2019-02-16T04:10:44.462Z,6.37
2019-02-16T04:13:11.698Z,6.40
2019-02-16T04:15:38.997Z,6.63
2019-02-16T04:18:06.272Z,5.63
2019-02-16T04:20:33.526Z,6.47
2019-02-16T04:23:00.899Z,6.13
2019-02-16T04:25:28.147Z,7.03
2019-02-16T04:27:55.354Z,8.50
2019-02-16T04:30:22.592Z,7.93
2019-02-16T04:32:49.864Z,7.60
2019-02-16T04:35:17.104Z,6.70
2019-02-16T04:37:44.330Z,9.33
2019-02-16T04:40:11.682Z,7.33
2019-02-16T04:42:39.296Z,7.80
2019-02-16T04:45:06.710Z,6.20
2019-02-16T04:47:33.944Z,6.83
2019-02-16T04:50:01.230Z,7.63
2019-02-16T04:52:34.795Z,7.80
2019-02-16T04:54:57.570Z,8.43
2019-02-16T04:57:24.832Z,8.07
2019-02-16T04:59:52.115Z,8.57
2019-02-16T05:02:19.377Z,8.23
2019-02-16T05:04:46.702Z,9.97
2019-02-16T05:07:13.932Z,9.17
2019-02-16T05:09:41.198Z,8.60
2019-02-16T05:12:08.417Z,8.60
2019-02-16T05:14:35.632Z,8.33
2019-02-16T05:17:02.867Z,9.00
2019-02-16T05:19:30.072Z,8.70
2019-02-16T05:21:57.269Z,9.30
2019-02-16T05:24:24.576Z,8.23
2019-02-16T05:26:51.787Z,8.87
2019-02-16T05:29:19.055Z,9.97
2019-02-16T05:31:46.301Z,8.53
2019-02-16T05:34:13.541Z,8.47
2019-02-16T05:36:40.813Z,9.43
2019-02-16T05:39:08.033Z,9.60
2019-02-16T05:41:35.255Z,9.43
2019-02-16T05:44:02.529Z,9.20
2019-02-16T05:46:29.741Z,9.83
2019-02-16T05:48:56.960Z,9.00
2019-02-16T05:51:24.204Z,9.67
2019-02-16T05:53:51.459Z,10.47
2019-02-16T05:56:18.759Z,10.07
2019-02-16T05:58:46.029Z,9.93
2019-02-16T06:01:13.245Z,11.30
2019-02-16T06:03:40.442Z,10.30
2019-02-16T06:06:07.721Z,9.83
2019-02-16T06:08:34.944Z,9.87
2019-02-16T06:11:02.164Z,10.10
2019-02-16T06:13:29.431Z,10.20
2019-02-16T06:15:56.690Z,10.40
2019-02-16T06:18:23.929Z,10.17
2019-02-16T06:20:51.194Z,9.90
2019-02-16T06:23:18.431Z,10.57
2019-02-16T06:25:45.669Z,10.03
2019-02-16T06:28:12.958Z,9.83
2019-02-16T06:30:40.202Z,11.10
2019-02-16T06:33:07.482Z,9.90
2019-02-16T06:35:59.893Z,10.50
2019-02-16T06:38:27.128Z,10.07
2019-02-16T06:40:54.376Z,11.17
2019-02-16T06:43:21.733Z,10.60
2019-02-16T06:45:48.961Z,11.03
2019-02-16T06:48:16.197Z,11.07
2019-02-16T06:53:24.251Z,10.87
2019-02-16T06:55:58.464Z,10.27
2019-02-16T06:58:25.703Z,10.80
2019-02-16T07:00:52.920Z,11.40
2019-02-16T07:03:20.173Z,10.60
2019-02-16T07:05:47.532Z,10.23
2019-02-16T07:08:14.782Z,11.50
2019-02-16T07:10:42.063Z,11.17
2019-02-16T07:13:09.420Z,12.17
2019-02-16T07:15:36.694Z,12.03
2019-02-16T07:18:18.133Z,12.20
2019-02-16T07:20:45.461Z,11.30
2019-02-16T07:23:21.976Z,11.20
2019-02-16T07:25:41.802Z,12.47
2019-02-16T07:28:09.070Z,11.50
2019-02-16T07:30:36.286Z,11.13
2019-02-16T07:33:03.519Z,11.40
2019-02-16T07:35:30.817Z,12.37
2019-02-16T07:37:58.030Z,11.33
2019-02-16T07:40:25.310Z,12.07
2019-02-16T07:42:54.764Z,12.20
2019-02-16T07:45:51.314Z,12.43
2019-02-16T07:48:33.856Z,12.70
2019-02-16T07:51:23.332Z,11.70
2019-02-16T07:54:22.244Z,12.63
2019-02-16T07:56:59.950Z,12.77
2019-02-16T07:59:46.824Z,10.90
2019-02-16T08:02:18.899Z,12.57
2019-02-16T08:05:11.542Z,12.50
2019-02-16T08:08:13.484Z,11.17
2019-02-16T08:11:03.079Z,10.67
2019-02-16T08:13:53.714Z,11.73
2019-02-16T08:16:28.453Z,12.03
2019-02-16T08:19:24.413Z,13.57
2019-02-16T08:22:24.617Z,13.07
2019-02-16T08:25:10.128Z,12.13
2019-02-16T08:27:49.749Z,14.10
2019-02-16T08:30:34.574Z,12.90
2019-02-16T08:33:21.391Z,14.30
2019-02-16T08:35:57.128Z,11.90
2019-02-16T08:38:34.551Z,13.57
2019-02-16T08:41:19.676Z,13.57
2019-02-16T08:44:24.736Z,16.80
2019-02-16T08:47:11.873Z,15.03
2019-02-16T08:49:57.108Z,18.10
2019-02-16T08:52:56.448Z,16.73
2019-02-16T08:55:47.107Z,15.47
2019-02-16T08:58:42.833Z,16.17
2019-02-16T09:01:21.521Z,16.03
2019-02-16T09:03:54.988Z,17.80
2019-02-16T09:06:42.776Z,17.17
2019-02-16T09:09:32.483Z,18.00
2019-02-16T09:12:11.539Z,18.03
2019-02-16T09:14:56.650Z,17.13
2019-02-16T09:17:43.433Z,18.57
2019-02-16T09:20:29.023Z,19.37
2019-02-16T09:23:13.463Z,16.73
2019-02-16T09:26:06.256Z,20.47
2019-02-16T09:28:53.406Z,18.20
2019-02-16T09:31:42.906Z,16.90
2019-02-16T09:34:18.650Z,17.43
2019-02-16T09:37:17.610Z,19.27
2019-02-16T09:40:13.495Z,20.10
2019-02-16T09:43:09.192Z,18.17
2019-02-16T09:45:55.997Z,19.13
2019-02-16T09:48:51.454Z,19.23
2019-02-16T09:51:41.091Z,23.00
2019-02-16T09:54:30.753Z,24.53
2019-02-16T09:57:04.892Z,24.43
2019-02-16T09:59:54.293Z,22.97
2019-02-16T10:02:46.939Z,22.67
2019-02-16T10:05:45.701Z,23.00
2019-02-16T10:08:41.305Z,22.40
2019-02-16T10:11:20.462Z,21.33
2019-02-16T10:14:07.533Z,21.37
2019-02-16T10:16:57.225Z,19.27
2019-02-16T10:20:02.025Z,16.53
2019-02-16T10:22:50.260Z,21.43
2019-02-16T10:25:27.061Z,20.90
2019-02-16T10:28:07.016Z,17.43
2019-02-16T10:30:49.568Z,21.90
2019-02-16T10:33:29.170Z,21.40
2019-02-16T10:36:34.172Z,21.13
2019-02-16T10:39:35.894Z,21.47
2019-02-16T10:42:20.848Z,20.87
2019-02-16T10:45:06.352Z,20.80
2019-02-16T10:47:53.161Z,20.13
2019-02-16T10:50:31.204Z,20.77
2019-02-16T10:53:26.723Z,20.27
2019-02-16T10:56:19.113Z,20.73
2019-02-16T10:59:14.816Z,20.53
2019-02-16T11:02:07.702Z,19.00
2019-02-16T11:04:45.739Z,21.40
2019-02-16T11:07:38.912Z,20.00
2019-02-16T11:10:24.514Z,20.23
2019-02-16T11:13:14.161Z,19.83
2019-02-16T11:16:12.942Z,19.83
2019-02-16T11:19:02.783Z,21.97
2019-02-16T11:21:37.382Z,20.13
2019-02-16T11:24:39.342Z,20.27
2019-02-16T11:27:19.383Z,20.07
2019-02-16T11:30:11.980Z,20.70
2019-02-16T11:33:07.584Z,20.80
2019-02-16T11:35:44.685Z,19.40
2019-02-16T11:38:30.235Z,19.77
2019-02-16T11:41:26.121Z,20.53
2019-02-16T11:44:15.658Z,19.87
2019-02-16T11:47:01.064Z,18.37
2019-02-16T11:49:53.788Z,29.67
2019-02-16T11:52:43.158Z,21.80
2019-02-16T11:55:24.504Z,18.90
2019-02-16T11:58:04.105Z,18.17
2019-02-16T12:00:53.508Z,19.70
2019-02-16T12:03:34.710Z,21.50
2019-02-16T12:06:16.746Z,20.30
2019-02-16T12:09:02.248Z,19.33
2019-02-16T12:11:40.994Z,18.33
2019-02-16T12:14:17.880Z,18.77
2019-02-16T12:17:07.703Z,18.40
2019-02-16T12:20:00.629Z,19.80
2019-02-16T12:22:56.315Z,19.00
2019-02-16T12:25:55.084Z,19.33
2019-02-16T12:28:38.869Z,18.43
2019-02-16T12:31:16.110Z,17.90
2019-02-16T12:33:50.897Z,16.70
2019-02-16T12:36:26.447Z,21.83
2019-02-16T12:39:04.800Z,17.47
2019-02-16T12:41:49.433Z,18.57
2019-02-16T12:44:38.836Z,21.03
2019-02-16T12:47:24.268Z,19.17
2019-02-16T12:50:13.931Z,20.10
2019-02-16T12:53:08.720Z,17.90
2019-02-16T12:55:58.506Z,19.97
2019-02-16T12:58:36.228Z,19.63
2019-02-16T13:01:14.937Z,20.00
2019-02-16T13:04:16.745Z,20.10
2019-02-16T13:07:03.577Z,19.77
2019-02-16T13:09:36.511Z,19.43
2019-02-16T13:12:22.178Z,20.20
2019-02-16T13:14:58.464Z,19.03
2019-02-16T13:17:38.089Z,21.73
2019-02-16T13:20:22.863Z,21.23
2019-02-16T13:23:27.879Z,21.07
2019-02-16T13:26:13.279Z,21.30
2019-02-16T13:28:48.084Z,23.90
2019-02-16T13:31:26.083Z,21.07
2019-02-16T13:33:58.975Z,20.50
2019-02-16T13:36:32.398Z,20.83
2019-02-16T13:39:17.655Z,24.17
2019-02-16T13:41:51.739Z,23.47
2019-02-16T13:44:41.146Z,24.27
2019-02-16T13:47:30.873Z,21.83
2019-02-16T13:50:16.371Z,21.30
2019-02-16T13:52:59.284Z,20.43
2019-02-16T13:55:41.514Z,20.40
2019-02-16T13:58:31.273Z,17.03
2019-02-16T14:01:20.888Z,22.63
2019-02-16T14:04:01.467Z,24.33
2019-02-16T14:06:54.163Z,18.47
2019-02-16T14:09:46.559Z,22.27
2019-02-16T14:12:24.371Z,23.70
2019-02-16T14:15:07.606Z,24.17
2019-02-16T14:17:46.775Z,22.50
2019-02-16T14:20:14.055Z,26.07
2019-02-16T14:22:41.403Z,22.63
2019-02-16T14:25:12.284Z,23.93
2019-02-16T14:27:39.520Z,23.80
2019-02-16T14:30:08.119Z,24.07
2019-02-16T14:32:35.376Z,23.53
2019-02-16T14:35:03.039Z,23.20
2019-02-16T14:37:50.136Z,22.47
2019-02-16T14:40:17.371Z,23.93
2019-02-16T14:42:44.662Z,21.70
2019-02-16T14:45:12.688Z,22.40
2019-02-16T14:47:39.913Z,22.43
2019-02-16T14:50:07.809Z,24.13
2019-02-16T14:52:35.044Z,23.70
2019-02-16T14:55:02.962Z,22.10
2019-02-16T14:57:30.160Z,24.77
2019-02-16T14:59:57.412Z,24.37
2019-02-16T15:02:24.684Z,23.47
2019-02-16T15:04:51.921Z,23.70
2019-02-16T15:07:19.187Z,22.80
2019-02-16T15:09:46.505Z,23.63
2019-02-16T15:12:13.741Z,24.83
2019-02-16T15:14:41.166Z,24.87
2019-02-16T15:17:08.672Z,24.30
2019-02-16T15:19:36.217Z,21.77
2019-02-16T15:22:03.476Z,24.03
2019-02-16T15:24:31.149Z,26.47
2019-02-16T15:26:58.939Z,24.97
2019-02-16T15:29:26.178Z,24.60
2019-02-16T15:31:53.549Z,25.53
2019-02-16T15:34:21.826Z,25.73
2019-02-16T15:36:49.054Z,24.93
2019-02-16T15:39:16.445Z,23.57
2019-02-16T15:41:43.706Z,24.73
2019-02-16T15:44:10.977Z,26.07
2019-02-16T15:46:38.243Z,26.83
2019-02-16T15:49:05.496Z,25.20
2019-02-16T15:51:32.755Z,27.93
2019-02-16T15:54:00.008Z,25.77
2019-02-16T15:56:28.353Z,27.93
2019-02-16T15:58:55.649Z,25.57
2019-02-16T16:01:22.928Z,26.37
2019-02-16T16:03:50.213Z,24.17
2019-02-16T16:06:17.495Z,26.13
2019-02-16T16:08:55.591Z,25.17
2019-02-16T16:12:00.952Z,25.53
2019-02-16T16:15:00.291Z,27.27
2019-02-16T16:17:40.567Z,26.23
2019-02-16T16:20:34.165Z,25.33
2019-02-16T16:23:21.096Z,26.70
2019-02-16T16:25:59.632Z,25.33
2019-02-16T16:28:46.474Z,25.03
2019-02-16T16:31:39.501Z,24.93
2019-02-16T16:34:41.536Z,25.20
2019-02-16T16:37:19.246Z,26.03
2019-02-16T16:40:24.143Z,25.97
2019-02-16T16:43:01.058Z,26.43
2019-02-16T16:45:59.882Z,25.97
2019-02-16T16:48:41.127Z,26.00
2019-02-16T16:51:33.764Z,27.17
2019-02-16T16:54:35.729Z,25.57
2019-02-16T16:57:21.476Z,27.60
2019-02-16T16:59:58.501Z,28.53
2019-02-16T17:02:45.291Z,28.77
2019-02-16T17:05:40.962Z,27.23
2019-02-16T17:08:33.608Z,27.47
2019-02-16T17:11:18.970Z,28.10
2019-02-16T17:14:08.728Z,28.10
2019-02-16T17:16:54.199Z,28.10
2019-02-16T17:19:27.446Z,27.50
2019-02-16T17:22:16.998Z,25.07
2019-02-16T17:25:06.624Z,24.20
2019-02-16T17:27:40.831Z,23.10
2019-02-16T17:30:45.768Z,22.10
2019-02-16T17:33:27.312Z,22.17
2019-02-16T17:36:07.192Z,25.50
2019-02-16T17:38:52.853Z,22.80
2019-02-16T17:41:54.886Z,22.60
2019-02-16T17:44:53.357Z,25.37
2019-02-16T17:47:40.033Z,25.50
2019-02-16T17:50:13.739Z,26.87
2019-02-16T17:53:03.192Z,27.13
2019-02-16T17:55:48.897Z,28.37
2019-02-16T17:58:35.661Z,28.23
2019-02-16T18:01:20.986Z,30.17
2019-02-16T18:04:26.124Z,30.73
2019-02-16T18:07:11.681Z,30.77
2019-02-16T18:10:07.255Z,29.13
2019-02-16T18:12:59.693Z,29.63
2019-02-16T18:15:49.580Z,27.90
2019-02-16T18:18:30.428Z,29.20
2019-02-16T18:21:12.230Z,27.07
2019-02-16T18:23:57.803Z,26.60
2019-02-16T18:26:43.460Z,28.63
2019-02-16T18:29:48.253Z,28.57
2019-02-16T18:32:33.598Z,29.10
2019-02-16T18:35:23.448Z,25.30
2019-02-16T18:38:05.356Z,25.70
2019-02-16T18:41:07.035Z,29.37
2019-02-16T18:43:59.854Z,27.53
2019-02-16T18:46:45.515Z,27.43
2019-02-16T18:49:41.130Z,25.93
2019-02-16T18:52:26.395Z,28.77
2019-02-16T18:55:16.252Z,28.03
2019-02-16T18:57:57.917Z,26.40
2019-02-16T19:00:53.708Z,27.63
2019-02-16T19:03:38.987Z,26.67
2019-02-16T19:06:17.569Z,28.50
2019-02-16T19:08:56.964Z,29.00
2019-02-16T19:11:52.643Z,28.33
2019-02-16T19:14:42.045Z,28.17
2019-02-16T19:17:14.502Z,30.37
2019-02-16T19:20:07.004Z,27.60
2019-02-16T19:22:59.753Z,30.03
2019-02-16T19:25:55.541Z,28.87
2019-02-16T19:29:00.750Z,26.47
2019-02-16T19:31:56.254Z,28.47
2019-02-16T19:34:38.009Z,29.30
2019-02-16T19:37:30.903Z,27.50
2019-02-16T19:40:07.483Z,26.30
2019-02-16T19:42:47.606Z,28.30
2019-02-16T19:45:34.455Z,28.83
2019-02-16T19:48:23.965Z,26.60
2019-02-16T19:51:17.092Z,27.33
2019-02-16T19:54:03.843Z,25.80
2019-02-16T19:56:49.117Z,27.23
2019-02-16T19:59:35.911Z,26.80
2019-02-16T20:02:19.813Z,27.77
2019-02-16T20:05:12.453Z,25.50
2019-02-16T20:07:52.517Z,24.93
2019-02-16T20:10:37.707Z,24.80
2019-02-16T20:13:33.167Z,23.93
2019-02-16T20:16:15.744Z,24.17
2019-02-16T20:18:56.913Z,24.67
2019-02-16T20:21:49.333Z,24.17
2019-02-16T20:24:38.775Z,25.30
2019-02-16T20:27:18.123Z,27.23
2019-02-16T20:30:10.857Z,27.03
2019-02-16T20:32:57.637Z,25.13
2019-02-16T20:35:34.482Z,26.83
2019-02-16T20:38:39.401Z,25.03
2019-02-16T20:41:35.113Z,27.63
2019-02-16T20:44:27.580Z,24.57
2019-02-16T20:47:14.431Z,26.10
2019-02-16T20:50:06.999Z,26.57
2019-02-16T20:52:52.339Z,25.87
2019-02-16T20:55:41.712Z,21.47
2019-02-16T20:58:34.261Z,27.37
2019-02-16T21:01:17.294Z,31.47
2019-02-16T21:04:12.945Z,29.50
2019-02-16T21:07:02.426Z,30.10
2019-02-16T21:09:54.127Z,32.20
2019-02-16T21:12:50.159Z,28.93
2019-02-16T21:15:26.558Z,30.83
2019-02-16T21:18:02.132Z,32.07
2019-02-16T21:20:44.215Z,33.80
2019-02-16T21:23:29.801Z,33.27
2019-02-16T21:26:05.125Z,33.70
2019-02-16T21:28:51.924Z,34.33
2019-02-16T21:31:24.495Z,32.63
2019-02-16T21:34:11.270Z,32.57
2019-02-16T21:36:43.321Z,33.50
2019-02-16T21:39:38.986Z,33.33
2019-02-16T21:42:40.804Z,35.00
2019-02-16T21:45:24.612Z,34.50
2019-02-16T21:48:23.512Z,34.53
2019-02-16T21:51:08.732Z,32.00
2019-02-16T21:53:49.415Z,32.60
2019-02-16T21:56:36.429Z,33.03
2019-02-16T21:59:38.178Z,35.13
2019-02-16T22:02:23.766Z,36.17
2019-02-16T22:05:09.060Z,35.50
2019-02-16T22:08:01.847Z,32.90
2019-02-16T22:11:00.686Z,34.37
2019-02-16T22:13:27.925Z,33.73
2019-02-16T22:15:55.173Z,33.37
2019-02-16T22:18:22.442Z,31.73
2019-02-16T22:20:49.677Z,34.10
2019-02-16T22:23:16.915Z,31.60
2019-02-16T22:25:44.195Z,32.17
2019-02-16T22:28:18.316Z,30.63
2019-02-16T22:30:40.607Z,33.03
2019-02-16T22:33:07.863Z,34.90
2019-02-16T22:35:35.081Z,33.13
2019-02-16T22:38:02.386Z,34.77
2019-02-16T22:40:29.620Z,35.70
2019-02-16T22:42:56.882Z,35.83
2019-02-16T22:45:24.163Z,34.30
2019-02-16T22:47:51.398Z,33.87
2019-02-16T22:50:18.645Z,33.43
2019-02-16T22:52:45.889Z,31.60
2019-02-16T22:55:13.150Z,31.80
2019-02-16T22:57:40.432Z,31.73
2019-02-16T23:00:15.686Z,31.60
2019-02-16T23:02:43.084Z,28.50
2019-02-16T23:05:10.311Z,29.77
2019-02-16T23:07:37.533Z,28.80
2019-02-16T23:10:06.705Z,28.90
2019-02-16T23:12:33.917Z,27.27
2019-02-16T23:15:01.175Z,29.63
2019-02-16T23:17:28.478Z,28.43
2019-02-16T23:19:55.740Z,31.67
2019-02-16T23:22:22.949Z,27.57
2019-02-16T23:24:50.207Z,25.80
2019-02-16T23:27:17.438Z,26.10
2019-02-16T23:29:44.782Z,25.13
2019-02-16T23:32:12.071Z,23.67
2019-02-16T23:34:39.293Z,25.33
2019-02-16T23:37:06.517Z,26.03
2019-02-16T23:39:33.774Z,25.03
2019-02-16T23:42:01.040Z,25.20
2019-02-16T23:44:28.265Z,25.03
2019-02-16T23:46:55.528Z,25.60
2019-02-16T23:49:22.763Z,24.80
2019-02-16T23:51:49.974Z,25.63
2019-02-16T23:54:17.230Z,25.33
2019-02-16T23:56:44.535Z,25.47
2019-02-16T23:59:11.808Z,25.87
